Time,TemperatureF,DewpointF,PressureIn,WindDirection,WindDirectionDegrees,WindSpeedMPH,WindSpeedGustMPH,Humidity,HourlyPrecipIn,Conditions,Clouds,dailyrainin,SoftwareType,DateUTC
2013-05-08 00:03:00,58.5,47.2,29.83,ESE,114,3.1,3.6,66,0.00,,---,0.00,VWS V14.01,2013-05-08 07:03:00,
2013-05-08 00:08:00,58.3,47.4,29.83,NNE,12,0.0,3.6,67,0.00,,---,0.00,VWS V14.01,2013-05-08 07:08:00,
2013-05-08 00:13:00,58.1,47.2,29.83,NNE,31,0.0,0.0,67,0.00,,---,0.00,VWS V14.01,2013-05-08 07:13:00,
2013-05-08 00:18:00,58.1,47.2,29.83,ENE,57,0.0,0.0,67,0.00,,---,0.00,VWS V14.01,2013-05-08 07:18:00,
2013-05-08 00:23:00,57.9,47.4,29.83,NE,37,0.0,2.7,68,0.00,,---,0.00,VWS V14.01,2013-05-08 07:23:00,
2013-05-08 00:28:00,57.6,47.1,29.83,ENE,71,0.0,2.7,68,0.00,,---,0.00,VWS V14.01,2013-05-08 07:28:00,
2013-05-08 00:34:00,57.4,46.9,29.83,ENE,64,0.0,0.0,68,0.00,,---,0.00,VWS V14.01,2013-05-08 07:34:00,
2013-05-08 00:39:00,57.2,46.8,29.83,NE,43,0.0,3.1,68,0.00,,---,0.00,VWS V14.01,2013-05-08 07:39:00,
2013-05-08 00:44:00,56.8,46.8,29.83,ENE,63,0.0,3.1,69,0.00,,---,0.00,VWS V14.01,2013-05-08 07:44:00,
2013-05-08 00:49:00,56.7,46.6,29.83,NE,51,0.0,3.1,69,0.00,,---,0.00,VWS V14.01,2013-05-08 07:49:00,
2013-05-08 00:54:00,56.5,46.8,29.83,NE,46,0.0,0.0,70,0.00,,---,0.00,VWS V14.01,2013-05-08 07:54:00,
2013-05-08 00:59:00,56.3,46.7,29.83,ENE,60,3.1,3.6,70,0.00,,---,0.00,VWS V14.01,2013-05-08 07:59:00,
2013-05-08 01:04:00,56.1,46.5,29.83,NNE,31,0.0,4.0,70,0.00,,---,0.00,VWS V14.01,2013-05-08 08:04:00,
2013-05-08 01:09:00,55.9,46.7,29.83,South,182,0.0,4.0,71,0.00,,---,0.00,VWS V14.01,2013-05-08 08:09:00,
2013-05-08 01:14:00,55.8,46.5,29.83,South,176,0.0,4.9,71,0.00,,---,0.00,VWS V14.01,2013-05-08 08:14:00,
2013-05-08 01:19:00,55.6,46.3,29.83,South,175,0.0,4.9,71,0.00,,---,0.00,VWS V14.01,2013-05-08 08:19:00,
2013-05-08 01:25:00,55.6,46.3,29.83,North,8,0.0,4.5,71,0.00,,---,0.00,VWS V14.01,2013-05-08 08:25:00,
2013-05-08 01:30:00,55.4,46.2,29.83,ENE,59,0.0,4.5,71,0.00,,---,0.00,VWS V14.01,2013-05-08 08:30:00,
2013-05-08 01:35:00,55.0,46.2,29.83,East,88,0.0,0.0,72,0.00,,---,0.00,VWS V14.01,2013-05-08 08:35:00,
2013-05-08 01:40:00,54.7,45.8,29.83,South,180,0.0,0.0,72,0.00,,---,0.00,VWS V14.01,2013-05-08 08:40:00,
2013-05-08 01:45:00,54.5,46.0,29.83,ESE,120,0.0,0.0,73,0.00,,---,0.00,VWS V14.01,2013-05-08 08:45:00,
2013-05-08 01:50:00,54.5,46.0,29.83,East,80,0.0,0.0,73,0.00,,---,0.00,VWS V14.01,2013-05-08 08:50:00,
2013-05-08 01:55:00,54.1,45.7,29.83,East,79,0.0,0.0,73,0.00,,---,0.00,VWS V14.01,2013-05-08 08:55:00,
2013-05-08 02:00:00,54.0,45.5,29.83,ESE,121,0.0,0.0,73,0.00,,---,0.00,VWS V14.01,2013-05-08 09:00:00,
2013-05-08 02:05:00,53.6,45.5,29.83,ENE,65,0.0,0.0,74,0.00,,---,0.00,VWS V14.01,2013-05-08 09:05:00,
2013-05-08 02:11:00,53.4,45.3,29.83,ENE,73,0.0,0.0,74,0.00,,---,0.00,VWS V14.01,2013-05-08 09:11:00,
2013-05-08 02:16:00,53.1,45.4,29.83,ESE,115,0.0,0.0,75,0.00,,---,0.00,VWS V14.01,2013-05-08 09:16:00,
2013-05-08 02:21:00,52.9,45.2,29.83,East,97,0.0,0.0,75,0.00,,---,0.00,VWS V14.01,2013-05-08 09:21:00,
2013-05-08 02:26:00,52.7,45.0,29.83,ESE,115,0.0,4.0,75,0.00,,---,0.00,VWS V14.01,2013-05-08 09:26:00,
2013-05-08 02:31:00,52.5,45.2,29.83,NNE,19,0.0,0.0,76,0.00,,---,0.00,VWS V14.01,2013-05-08 09:31:00,
2013-05-08 02:36:00,52.5,45.2,29.83,East,83,0.0,0.0,76,0.00,,---,0.00,VWS V14.01,2013-05-08 09:36:00,
2013-05-08 02:41:00,52.3,45.0,29.83,East,83,0.0,0.0,76,0.00,,---,0.00,VWS V14.01,2013-05-08 09:41:00,
2013-05-08 02:47:00,52.2,44.8,29.83,East,83,0.0,0.0,76,0.00,,---,0.00,VWS V14.01,2013-05-08 09:47:00,
2013-05-08 02:52:00,51.8,44.5,29.83,East,83,0.0,0.0,76,0.00,,---,0.00,VWS V14.01,2013-05-08 09:52:00,
2013-05-08 02:57:00,51.6,44.7,29.83,ESE,102,0.0,0.0,77,0.00,,---,0.00,VWS V14.01,2013-05-08 09:57:00,
2013-05-08 03:02:00,51.4,44.8,29.83,East,89,0.0,0.0,78,0.00,,---,0.00,VWS V14.01,2013-05-08 10:02:00,
2013-05-08 03:07:00,51.4,44.8,29.86,ESE,118,0.0,0.0,78,0.00,,---,0.00,VWS V14.01,2013-05-08 10:07:00,
2013-05-08 03:12:00,51.3,44.6,29.86,NNE,19,0.0,0.0,78,0.00,,---,0.00,VWS V14.01,2013-05-08 10:12:00,
2013-05-08 03:17:00,51.1,44.5,29.86,ENE,66,0.0,0.0,78,0.00,,---,0.00,VWS V14.01,2013-05-08 10:17:00,
2013-05-08 03:22:00,50.9,44.6,29.86,ENE,66,0.0,0.0,79,0.00,,---,0.00,VWS V14.01,2013-05-08 10:22:00,
2013-05-08 03:27:00,50.5,44.3,29.86,ENE,66,0.0,0.0,79,0.00,,---,0.00,VWS V14.01,2013-05-08 10:27:00,
2013-05-08 03:32:00,50.5,44.6,29.86,ENE,64,0.0,3.6,80,0.00,,---,0.00,VWS V14.01,2013-05-08 10:32:00,
2013-05-08 03:38:00,50.4,44.4,29.86,ENE,69,0.0,3.6,80,0.00,,---,0.00,VWS V14.01,2013-05-08 10:38:00,
2013-05-08 03:44:00,50.4,44.8,29.86,ESE,112,4.0,4.0,81,0.00,,---,0.00,VWS V14.01,2013-05-08 10:44:00,
2013-05-08 03:49:00,50.2,44.6,29.86,East,97,0.0,4.0,81,0.00,,---,0.00,VWS V14.01,2013-05-08 10:49:00,
2013-05-08 03:54:00,50.2,44.6,29.86,ESE,102,0.0,0.0,81,0.00,,---,0.00,VWS V14.01,2013-05-08 10:54:00,
2013-05-08 03:59:00,50.0,44.4,29.86,NNE,20,0.0,0.0,81,0.00,,---,0.00,VWS V14.01,2013-05-08 10:59:00,
2013-05-08 04:04:00,49.8,44.2,29.86,NNE,22,0.0,0.0,81,0.00,,---,0.00,VWS V14.01,2013-05-08 11:04:00,
2013-05-08 04:09:00,49.8,44.5,29.86,East,82,0.0,0.0,82,0.00,,---,0.00,VWS V14.01,2013-05-08 11:09:00,
2013-05-08 04:14:00,49.6,44.4,29.86,East,88,0.0,0.0,82,0.00,,---,0.00,VWS V14.01,2013-05-08 11:14:00,
2013-05-08 04:19:00,49.5,44.2,29.86,East,88,0.0,0.0,82,0.00,,---,0.00,VWS V14.01,2013-05-08 11:19:00,
2013-05-08 04:24:00,49.3,44.0,29.86,East,88,0.0,0.0,82,0.00,,---,0.00,VWS V14.01,2013-05-08 11:24:00,
2013-05-08 04:30:00,49.3,44.0,29.86,East,88,0.0,0.0,82,0.00,,---,0.00,VWS V14.01,2013-05-08 11:30:00,
2013-05-08 04:35:00,49.1,43.8,29.86,NNE,27,0.0,0.0,82,0.00,,---,0.00,VWS V14.01,2013-05-08 11:35:00,
2013-05-08 04:40:00,49.1,44.2,29.86,NE,45,0.0,0.0,83,0.00,,---,0.00,VWS V14.01,2013-05-08 11:40:00,
2013-05-08 04:45:00,48.9,44.0,29.86,NE,45,0.0,0.0,83,0.00,,---,0.00,VWS V14.01,2013-05-08 11:45:00,
2013-05-08 04:50:00,48.7,43.8,29.86,NE,47,0.0,0.0,83,0.00,,---,0.00,VWS V14.01,2013-05-08 11:50:00,
2013-05-08 04:55:00,48.7,43.8,29.86,NNE,12,0.0,0.0,83,0.00,,---,0.00,VWS V14.01,2013-05-08 11:55:00,
2013-05-08 05:00:00,48.6,43.6,29.86,ENE,71,0.0,0.0,83,0.00,,---,0.00,VWS V14.01,2013-05-08 12:00:00,
2013-05-08 05:05:00,48.6,43.6,29.86,ENE,71,0.0,0.0,83,0.00,,---,0.00,VWS V14.01,2013-05-08 12:05:00,
2013-05-08 05:10:00,48.4,43.5,29.86,ENE,71,0.0,0.0,83,0.00,,---,0.00,VWS V14.01,2013-05-08 12:10:00,
2013-05-08 05:16:00,48.2,43.3,29.86,NNE,28,0.0,0.0,83,0.00,,---,0.00,VWS V14.01,2013-05-08 12:16:00,
2013-05-08 05:21:00,48.0,43.4,29.86,NNE,28,0.0,0.0,84,0.00,,---,0.00,VWS V14.01,2013-05-08 12:21:00,
2013-05-08 05:26:00,48.0,43.4,29.86,ENE,73,0.0,0.0,84,0.00,,---,0.00,VWS V14.01,2013-05-08 12:26:00,
2013-05-08 05:31:00,48.0,43.4,29.86,ENE,71,0.0,0.0,84,0.00,,---,0.00,VWS V14.01,2013-05-08 12:31:00,
2013-05-08 05:36:00,47.8,43.2,29.86,NNE,30,0.0,0.0,84,0.00,,---,0.00,VWS V14.01,2013-05-08 12:36:00,
2013-05-08 05:41:00,47.8,43.2,29.86,NNE,18,0.0,0.0,84,0.00,,---,0.00,VWS V14.01,2013-05-08 12:41:00,
2013-05-08 05:46:00,47.7,43.1,29.86,NE,41,0.0,3.1,84,0.00,,---,0.00,VWS V14.01,2013-05-08 12:46:00,
2013-05-08 05:51:00,47.7,43.4,29.86,NNE,25,0.0,0.0,85,0.00,,---,0.00,VWS V14.01,2013-05-08 12:51:00,
2013-05-08 05:56:00,47.7,43.4,29.86,NE,52,0.0,4.0,85,0.00,,---,0.00,VWS V14.01,2013-05-08 12:56:00,
2013-05-08 06:01:00,47.7,43.4,29.86,NE,54,0.0,3.1,85,0.00,,---,0.00,VWS V14.01,2013-05-08 13:01:00,
2013-05-08 06:06:00,47.5,43.2,29.86,ENE,60,0.0,3.6,85,0.00,,---,0.00,VWS V14.01,2013-05-08 13:06:00,
2013-05-08 06:11:00,47.5,43.2,29.86,ESE,116,3.6,4.9,85,0.00,,---,0.00,VWS V14.01,2013-05-08 13:11:00,
2013-05-08 06:16:00,48.0,44.0,29.86,ENE,62,0.0,8.7,86,0.00,,---,0.00,VWS V14.01,2013-05-08 13:16:00,
2013-05-08 06:21:00,48.0,43.7,29.86,ENE,71,0.0,0.0,85,0.00,,---,0.00,VWS V14.01,2013-05-08 13:21:00,
2013-05-08 06:26:00,47.8,43.6,29.86,ENE,75,0.0,0.0,85,0.00,,---,0.00,VWS V14.01,2013-05-08 13:26:00,
2013-05-08 06:32:00,47.8,43.6,29.86,ENE,77,0.0,0.0,85,0.00,,---,0.00,VWS V14.01,2013-05-08 13:32:00,
2013-05-08 06:37:00,47.8,43.6,29.86,NNE,28,0.0,0.0,85,0.00,,---,0.00,VWS V14.01,2013-05-08 13:37:00,
2013-05-08 06:42:00,47.7,43.4,29.86,NNE,17,0.0,0.0,85,0.00,,---,0.00,VWS V14.01,2013-05-08 13:42:00,
2013-05-08 06:48:00,47.7,43.7,29.86,NNE,27,0.0,0.0,86,0.00,,---,0.00,VWS V14.01,2013-05-08 13:48:00,
2013-05-08 06:53:00,47.8,43.9,29.86,ENE,67,0.0,4.0,86,0.00,,---,0.00,VWS V14.01,2013-05-08 13:53:00,
2013-05-08 06:58:00,48.0,44.0,29.86,NNE,17,0.0,4.0,86,0.00,,---,0.00,VWS V14.01,2013-05-08 13:58:00,
2013-05-08 07:03:00,48.0,44.0,29.86,SE,130,0.0,3.1,86,0.00,,---,0.00,VWS V14.01,2013-05-08 14:03:00,
2013-05-08 07:08:00,48.2,44.2,29.86,NNE,24,0.0,3.1,86,0.00,,---,0.00,VWS V14.01,2013-05-08 14:08:00,
2013-05-08 07:13:00,48.4,44.4,29.86,East,84,0.0,0.0,86,0.00,,---,0.00,VWS V14.01,2013-05-08 14:13:00,
2013-05-08 07:18:00,48.6,44.6,29.86,NNE,27,0.0,0.0,86,0.00,,---,0.00,VWS V14.01,2013-05-08 14:18:00,
2013-05-08 07:23:00,48.7,44.8,29.86,NNE,13,0.0,4.0,86,0.00,,---,0.00,VWS V14.01,2013-05-08 14:23:00,
2013-05-08 07:28:00,49.1,45.1,29.86,NNE,20,0.0,4.0,86,0.00,,---,0.00,VWS V14.01,2013-05-08 14:28:00,
2013-05-08 07:33:00,49.5,45.5,29.86,ESE,122,0.0,3.6,86,0.00,,---,0.00,VWS V14.01,2013-05-08 14:33:00,
2013-05-08 07:38:00,50.0,46.0,29.86,SW,227,0.0,3.6,86,0.00,,---,0.00,VWS V14.01,2013-05-08 14:38:00,
2013-05-08 07:43:00,50.4,46.3,29.86,WNW,295,0.0,0.0,86,0.00,,---,0.00,VWS V14.01,2013-05-08 14:43:00,
2013-05-08 07:48:00,51.1,47.0,29.86,South,171,0.0,4.0,86,0.00,,---,0.00,VWS V14.01,2013-05-08 14:48:00,
2013-05-08 07:54:00,52.0,47.6,29.89,SSE,152,2.2,8.1,85,0.00,,---,0.00,VWS V14.01,2013-05-08 14:54:00,
2013-05-08 07:59:00,53.1,48.4,29.89,NE,45,0.0,8.1,84,0.00,,---,0.00,VWS V14.01,2013-05-08 14:59:00,
2013-05-08 08:04:00,53.6,48.6,29.89,SE,124,0.0,2.7,83,0.00,,---,0.00,VWS V14.01,2013-05-08 15:04:00,
2013-05-08 08:09:00,54.7,48.6,29.89,SSE,167,0.0,5.8,80,0.00,,---,0.00,VWS V14.01,2013-05-08 15:09:00,
2013-05-08 08:14:00,55.2,48.8,29.89,ESE,110,0.0,4.0,79,0.00,,---,0.00,VWS V14.01,2013-05-08 15:14:00,
2013-05-08 08:19:00,55.6,49.2,29.89,NNE,25,0.0,4.9,79,0.00,,---,0.00,VWS V14.01,2013-05-08 15:19:00,
2013-05-08 08:24:00,55.8,49.4,29.89,SE,130,5.4,5.4,79,0.00,,---,0.00,VWS V14.01,2013-05-08 15:24:00,
2013-05-08 08:30:00,56.1,49.0,29.89,East,97,0.0,5.4,77,0.00,,---,0.00,VWS V14.01,2013-05-08 15:30:00,
2013-05-08 08:35:00,56.7,49.2,29.89,ESE,103,0.0,0.0,76,0.00,,---,0.00,VWS V14.01,2013-05-08 15:35:00,
2013-05-08 08:40:00,56.8,49.4,29.89,SSE,153,0.0,0.0,76,0.00,,---,0.00,VWS V14.01,2013-05-08 15:40:00,
2013-05-08 08:45:00,57.2,49.4,29.89,ESE,103,0.0,3.6,75,0.00,,---,0.00,VWS V14.01,2013-05-08 15:45:00,
2013-05-08 08:50:00,57.6,49.3,29.89,ESE,110,0.0,0.0,74,0.00,,---,0.00,VWS V14.01,2013-05-08 15:50:00,
2013-05-08 08:56:00,58.1,49.5,29.89,ENE,76,0.0,3.1,73,0.00,,---,0.00,VWS V14.01,2013-05-08 15:56:00,
2013-05-08 09:01:00,58.5,49.5,29.89,East,91,0.0,0.0,72,0.00,,---,0.00,VWS V14.01,2013-05-08 16:01:00,
2013-05-08 09:06:00,58.8,49.8,29.89,NE,39,0.0,4.0,72,0.00,,---,0.00,VWS V14.01,2013-05-08 16:06:00,
2013-05-08 09:11:00,59.2,49.8,29.89,ENE,67,2.7,2.7,71,0.00,,---,0.00,VWS V14.01,2013-05-08 16:11:00,
2013-05-08 09:16:00,59.7,50.3,29.89,ENE,71,0.0,2.7,71,0.00,,---,0.00,VWS V14.01,2013-05-08 16:16:00,
2013-05-08 09:21:00,60.1,50.3,29.89,ENE,75,0.0,0.0,70,0.00,,---,0.00,VWS V14.01,2013-05-08 16:21:00,
2013-05-08 09:27:00,60.4,50.6,29.89,SE,128,0.0,0.0,70,0.00,,---,0.00,VWS V14.01,2013-05-08 16:27:00,
2013-05-08 09:32:00,61.0,50.8,29.89,East,99,0.0,0.0,69,0.00,,---,0.00,VWS V14.01,2013-05-08 16:32:00,
2013-05-08 09:37:00,61.3,50.7,29.89,SE,137,0.0,2.7,68,0.00,,---,0.00,VWS V14.01,2013-05-08 16:37:00,
2013-05-08 09:43:00,61.7,50.6,29.89,NE,38,0.0,0.0,67,0.00,,---,0.00,VWS V14.01,2013-05-08 16:43:00,
2013-05-08 09:48:00,62.2,50.8,29.89,ENE,59,0.0,0.0,66,0.00,,---,0.00,VWS V14.01,2013-05-08 16:48:00,
2013-05-08 09:53:00,62.6,50.7,29.89,SE,146,0.0,0.0,65,0.00,,---,0.00,VWS V14.01,2013-05-08 16:53:00,
2013-05-08 09:58:00,63.1,50.3,29.89,North,353,2.2,2.2,63,0.00,,---,0.00,VWS V14.01,2013-05-08 16:58:00,
2013-05-08 10:03:00,63.7,50.9,29.89,NW,310,0.0,0.0,63,0.00,,---,0.00,VWS V14.01,2013-05-08 17:03:00,
2013-05-08 10:08:00,64.2,50.9,29.89,NE,35,0.0,0.0,62,0.00,,---,0.00,VWS V14.01,2013-05-08 17:08:00,
2013-05-08 10:13:00,64.6,50.8,29.89,ESE,105,0.0,0.0,61,0.00,,---,0.00,VWS V14.01,2013-05-08 17:13:00,
2013-05-08 10:18:00,65.1,50.5,29.89,West,260,0.0,2.2,59,0.00,,---,0.00,VWS V14.01,2013-05-08 17:18:00,
2013-05-08 10:23:00,65.7,50.5,29.89,WNW,285,0.0,0.0,58,0.00,,---,0.00,VWS V14.01,2013-05-08 17:23:00,
2013-05-08 10:28:00,66.0,51.3,29.89,SE,124,0.0,0.0,59,0.00,,---,0.00,VWS V14.01,2013-05-08 17:28:00,
2013-05-08 10:33:00,66.4,49.7,29.89,ENE,78,0.0,4.0,55,0.00,,---,0.00,VWS V14.01,2013-05-08 17:33:00,
2013-05-08 10:38:00,66.7,50.6,29.89,NNE,13,0.0,4.0,56,0.00,,---,0.00,VWS V14.01,2013-05-08 17:38:00,
2013-05-08 10:43:00,67.1,50.4,29.89,ENE,65,0.0,0.0,55,0.00,,---,0.00,VWS V14.01,2013-05-08 17:43:00,
2013-05-08 10:49:00,67.6,50.4,29.89,East,79,3.1,4.0,54,0.00,,---,0.00,VWS V14.01,2013-05-08 17:49:00,
2013-05-08 10:54:00,68.0,49.2,29.89,NE,52,0.0,3.1,51,0.00,,---,0.00,VWS V14.01,2013-05-08 17:54:00,
2013-05-08 10:59:00,68.5,49.2,29.89,North,7,0.0,4.9,50,0.00,,---,0.00,VWS V14.01,2013-05-08 17:59:00,
2013-05-08 11:04:00,69.1,49.1,29.89,East,79,3.6,3.6,49,0.00,,---,0.00,VWS V14.01,2013-05-08 18:04:00,
2013-05-08 11:09:00,69.6,49.6,29.89,SW,229,0.0,4.0,49,0.00,,---,0.00,VWS V14.01,2013-05-08 18:09:00,
2013-05-08 11:14:00,70.0,48.8,29.89,ENE,71,0.0,0.0,47,0.00,,---,0.00,VWS V14.01,2013-05-08 18:14:00,
2013-05-08 11:19:00,70.7,48.9,29.89,NW,319,0.0,0.0,46,0.00,,---,0.00,VWS V14.01,2013-05-08 18:19:00,
2013-05-08 11:24:00,71.6,49.2,29.89,SW,235,0.0,0.0,45,0.00,,---,0.00,VWS V14.01,2013-05-08 18:24:00,
2013-05-08 11:29:00,72.7,48.9,29.89,ENE,73,0.0,4.0,43,0.00,,---,0.00,VWS V14.01,2013-05-08 18:29:00,
2013-05-08 11:34:00,73.8,49.9,29.89,SW,235,0.0,3.1,43,0.00,,---,0.00,VWS V14.01,2013-05-08 18:34:00,
2013-05-08 11:39:00,74.7,50.1,29.89,SE,136,0.0,3.1,42,0.00,,---,0.00,VWS V14.01,2013-05-08 18:39:00,
2013-05-08 11:44:00,75.4,50.1,29.89,SE,143,0.0,2.7,41,0.00,,---,0.00,VWS V14.01,2013-05-08 18:44:00,
2013-05-08 11:50:00,76.1,49.4,29.89,South,178,0.0,2.7,39,0.00,,---,0.00,VWS V14.01,2013-05-08 18:50:00,
2013-05-08 11:55:00,76.6,48.4,29.89,South,184,0.0,0.0,37,0.00,,---,0.00,VWS V14.01,2013-05-08 18:55:00,
2013-05-08 12:00:00,77.2,50.3,29.89,South,189,0.0,0.0,39,0.00,,---,0.00,VWS V14.01,2013-05-08 19:00:00,
2013-05-08 12:05:00,77.9,48.8,29.89,West,268,0.0,2.2,36,0.00,,---,0.00,VWS V14.01,2013-05-08 19:05:00,
2013-05-08 12:10:00,78.6,48.7,29.89,NNE,12,0.0,0.0,35,0.00,,---,0.00,VWS V14.01,2013-05-08 19:10:00,
2013-05-08 12:15:00,79.2,46.8,29.89,East,84,0.0,4.0,32,0.00,,---,0.00,VWS V14.01,2013-05-08 19:15:00,
2013-05-08 12:20:00,79.2,46.8,29.89,SSE,166,0.0,0.0,32,0.00,,---,0.00,VWS V14.01,2013-05-08 19:20:00,
2013-05-08 12:25:00,79.7,47.3,29.89,SSW,207,0.0,2.2,32,0.00,,---,0.00,VWS V14.01,2013-05-08 19:25:00,
2013-05-08 12:30:00,79.9,46.6,29.89,WNW,302,0.0,0.0,31,0.00,,---,0.00,VWS V14.01,2013-05-08 19:30:00,
2013-05-08 12:36:00,80.1,45.9,29.86,SE,135,0.0,0.0,30,0.00,,---,0.00,VWS V14.01,2013-05-08 19:36:00,
2013-05-08 12:41:00,80.4,47.0,29.86,SSE,156,0.0,0.0,31,0.00,,---,0.00,VWS V14.01,2013-05-08 19:41:00,
2013-05-08 12:46:00,81.0,46.6,29.86,WSW,256,0.0,2.7,30,0.00,,---,0.00,VWS V14.01,2013-05-08 19:46:00,
2013-05-08 12:51:00,81.1,46.8,29.86,SSW,201,0.0,0.0,30,0.00,,---,0.00,VWS V14.01,2013-05-08 19:51:00,
2013-05-08 12:56:00,81.7,47.3,29.86,West,271,0.0,2.7,30,0.00,,---,0.00,VWS V14.01,2013-05-08 19:56:00,
2013-05-08 13:01:00,82.2,47.7,29.86,WNW,285,0.0,0.0,30,0.00,,---,0.00,VWS V14.01,2013-05-08 20:01:00,
2013-05-08 13:07:00,82.0,46.7,29.86,West,277,0.0,2.2,29,0.00,,---,0.00,VWS V14.01,2013-05-08 20:07:00,
2013-05-08 13:12:00,82.0,45.8,29.86,WNW,289,0.0,0.0,28,0.00,,---,0.00,VWS V14.01,2013-05-08 20:12:00,
2013-05-08 13:17:00,82.4,46.1,29.86,North,353,2.2,2.7,28,0.00,,---,0.00,VWS V14.01,2013-05-08 20:17:00,
2013-05-08 13:22:00,82.8,47.3,29.86,WNW,291,0.0,0.0,29,0.00,,---,0.00,VWS V14.01,2013-05-08 20:22:00,
2013-05-08 13:27:00,83.5,47.0,29.86,NE,51,0.0,0.0,28,0.00,,---,0.00,VWS V14.01,2013-05-08 20:27:00,
2013-05-08 13:32:00,84.0,46.5,29.86,West,271,0.0,0.0,27,0.00,,---,0.00,VWS V14.01,2013-05-08 20:32:00,
2013-05-08 13:37:00,84.6,46.9,29.86,ENE,66,0.0,0.0,27,0.00,,---,0.00,VWS V14.01,2013-05-08 20:37:00,
2013-05-08 13:42:00,84.7,45.1,29.86,NNW,341,0.0,3.1,25,0.00,,---,0.00,VWS V14.01,2013-05-08 20:42:00,
2013-05-08 13:47:00,84.7,45.1,29.86,SE,136,0.0,3.1,25,0.00,,---,0.00,VWS V14.01,2013-05-08 20:47:00,
2013-05-08 13:52:00,85.5,45.7,29.86,WNW,298,0.0,2.2,25,0.00,,---,0.00,VWS V14.01,2013-05-08 20:52:00,
2013-05-08 13:58:00,85.6,44.7,29.86,NNW,335,0.0,2.7,24,0.00,,---,0.00,VWS V14.01,2013-05-08 20:58:00,
2013-05-08 14:03:00,85.8,44.9,29.86,North,0,0.0,2.2,24,0.00,,---,0.00,VWS V14.01,2013-05-08 21:03:00,
2013-05-08 14:08:00,85.8,44.9,29.86,SSE,167,2.2,4.0,24,0.00,,---,0.00,VWS V14.01,2013-05-08 21:08:00,
2013-05-08 14:13:00,85.8,44.9,29.86,ENE,76,0.0,2.7,24,0.00,,---,0.00,VWS V14.01,2013-05-08 21:13:00,
2013-05-08 14:18:00,85.8,43.8,29.86,ESE,120,0.0,2.7,23,0.00,,---,0.00,VWS V14.01,2013-05-08 21:18:00,
2013-05-08 14:23:00,85.8,44.9,29.86,ESE,116,0.0,2.2,24,0.00,,---,0.00,VWS V14.01,2013-05-08 21:23:00,
2013-05-08 14:28:00,86.2,44.1,29.86,East,90,0.0,2.2,23,0.00,,---,0.00,VWS V14.01,2013-05-08 21:28:00,
2013-05-08 14:33:00,86.4,44.2,29.86,ENE,78,0.0,4.0,23,0.00,,---,0.00,VWS V14.01,2013-05-08 21:33:00,
2013-05-08 14:38:00,86.2,44.1,29.86,WNW,292,0.0,4.0,23,0.00,,---,0.00,VWS V14.01,2013-05-08 21:38:00,
2013-05-08 14:43:00,86.0,45.0,29.86,WNW,282,0.0,5.4,24,0.00,,---,0.00,VWS V14.01,2013-05-08 21:43:00,
2013-05-08 14:48:00,85.8,44.9,29.86,ESE,116,2.2,5.4,24,0.00,,---,0.00,VWS V14.01,2013-05-08 21:48:00,
2013-05-08 14:54:00,85.6,44.7,29.86,WNW,289,0.0,2.7,24,0.00,,---,0.00,VWS V14.01,2013-05-08 21:54:00,
2013-05-08 14:59:00,85.3,44.4,29.86,ESE,118,0.0,5.4,24,0.00,,---,0.00,VWS V14.01,2013-05-08 21:59:00,
2013-05-08 15:04:00,85.3,45.5,29.86,NNE,30,0.0,2.2,25,0.00,,---,0.00,VWS V14.01,2013-05-08 22:04:00,
2013-05-08 15:09:00,85.5,45.7,29.86,NW,316,0.0,2.2,25,0.00,,---,0.00,VWS V14.01,2013-05-08 22:09:00,
2013-05-08 15:14:00,85.5,45.7,29.86,NW,318,0.0,0.0,25,0.00,,---,0.00,VWS V14.01,2013-05-08 22:14:00,
2013-05-08 15:19:00,85.1,44.3,29.86,West,260,0.0,3.1,24,0.00,,---,0.00,VWS V14.01,2013-05-08 22:19:00,
2013-05-08 15:25:00,84.9,45.2,29.86,ESE,118,0.0,5.4,25,0.00,,---,0.00,VWS V14.01,2013-05-08 22:25:00,
2013-05-08 15:30:00,84.4,43.7,29.86,WNW,294,0.0,5.4,24,0.00,,---,0.00,VWS V14.01,2013-05-08 22:30:00,
2013-05-08 15:35:00,84.0,43.4,29.86,WSW,246,0.0,4.9,24,0.00,,---,0.00,VWS V14.01,2013-05-08 22:35:00,
2013-05-08 15:41:00,83.5,42.9,29.86,SE,144,0.0,3.6,24,0.00,,---,0.00,VWS V14.01,2013-05-08 22:41:00,
2013-05-08 15:46:00,82.9,41.4,29.86,SE,145,0.0,4.9,23,0.00,,---,0.00,VWS V14.01,2013-05-08 22:46:00,
2013-05-08 15:51:00,82.8,41.2,29.86,SE,125,0.0,2.7,23,0.00,,---,0.00,VWS V14.01,2013-05-08 22:51:00,
2013-05-08 15:56:00,82.6,41.1,29.86,NNW,343,2.2,8.7,23,0.00,,---,0.00,VWS V14.01,2013-05-08 22:56:00,
2013-05-08 16:01:00,82.4,42.0,29.86,ENE,70,0.0,5.4,24,0.00,,---,0.00,VWS V14.01,2013-05-08 23:01:00,
2013-05-08 16:07:00,82.4,42.0,29.86,East,81,3.1,5.4,24,0.00,,---,0.00,VWS V14.01,2013-05-08 23:07:00,
2013-05-08 16:12:00,82.2,44.0,29.86,ESE,114,0.0,4.5,26,0.00,,---,0.00,VWS V14.01,2013-05-08 23:12:00,
2013-05-08 16:17:00,82.0,43.8,29.86,ENE,64,3.1,6.3,26,0.00,,---,0.00,VWS V14.01,2013-05-08 23:17:00,
2013-05-08 16:22:00,81.9,44.6,29.86,ENE,77,6.3,6.3,27,0.00,,---,0.00,VWS V14.01,2013-05-08 23:22:00,
2013-05-08 16:27:00,81.5,44.3,29.86,East,86,3.1,7.6,27,0.00,,---,0.00,VWS V14.01,2013-05-08 23:27:00,
2013-05-08 16:32:00,81.3,44.2,29.86,ENE,78,4.9,5.4,27,0.00,,---,0.00,VWS V14.01,2013-05-08 23:32:00,
2013-05-08 16:38:00,81.1,44.0,29.86,East,84,4.9,7.2,27,0.00,,---,0.00,VWS V14.01,2013-05-08 23:38:00,
2013-05-08 16:43:00,81.0,44.8,29.86,ENE,78,3.1,5.4,28,0.00,,---,0.00,VWS V14.01,2013-05-08 23:43:00,
2013-05-08 16:48:00,80.8,45.6,29.86,NE,43,0.0,5.8,29,0.00,,---,0.00,VWS V14.01,2013-05-08 23:48:00,
2013-05-08 16:53:00,80.8,45.6,29.86,East,94,0.0,0.0,29,0.00,,---,0.00,VWS V14.01,2013-05-08 23:53:00,
2013-05-08 16:58:00,80.6,45.4,29.86,ENE,72,0.0,0.0,29,0.00,,---,0.00,VWS V14.01,2013-05-08 23:58:00,
2013-05-08 17:03:00,80.4,46.2,29.86,SE,124,0.0,4.0,30,0.00,,---,0.00,VWS V14.01,2013-05-09 00:03:00,
2013-05-08 17:08:00,80.2,46.0,29.86,SE,134,3.1,4.9,30,0.00,,---,0.00,VWS V14.01,2013-05-09 00:08:00,
2013-05-08 17:14:00,79.9,45.7,29.86,WNW,303,0.0,6.3,30,0.00,,---,0.00,VWS V14.01,2013-05-09 00:14:00,
2013-05-08 17:19:00,79.9,45.7,29.86,East,94,4.0,6.3,30,0.00,,---,0.00,VWS V14.01,2013-05-09 00:19:00,
2013-05-08 17:24:00,79.9,45.7,29.86,WSW,256,0.0,4.9,30,0.00,,---,0.00,VWS V14.01,2013-05-09 00:24:00,
2013-05-08 17:29:00,79.9,45.7,29.86,North,357,0.0,8.1,30,0.00,,---,0.00,VWS V14.01,2013-05-09 00:29:00,
2013-05-08 17:34:00,79.7,45.6,29.86,SW,224,0.0,2.7,30,0.00,,---,0.00,VWS V14.01,2013-05-09 00:34:00,
2013-05-08 17:40:00,79.5,45.4,29.86,ESE,106,0.0,2.7,30,0.00,,---,0.00,VWS V14.01,2013-05-09 00:40:00,
2013-05-08 17:45:00,79.2,45.1,29.86,ENE,74,0.0,4.5,30,0.00,,---,0.00,VWS V14.01,2013-05-09 00:45:00,
2013-05-08 17:50:00,78.8,44.8,29.86,ENE,72,0.0,4.5,30,0.00,,---,0.00,VWS V14.01,2013-05-09 00:50:00,
2013-05-08 17:55:00,78.3,45.2,29.86,SE,128,3.6,5.8,31,0.00,,---,0.00,VWS V14.01,2013-05-09 00:55:00,
2013-05-08 18:00:00,78.1,45.0,29.86,SW,220,0.0,0.0,31,0.00,,---,0.00,VWS V14.01,2013-05-09 01:00:00,
2013-05-08 18:06:00,77.9,44.9,29.86,ENE,78,2.7,3.1,31,0.00,,---,0.00,VWS V14.01,2013-05-09 01:06:00,
2013-05-08 18:11:00,77.7,44.7,29.86,South,170,0.0,0.0,31,0.00,,---,0.00,VWS V14.01,2013-05-09 01:11:00,
2013-05-08 18:16:00,77.4,44.4,29.86,East,98,0.0,4.0,31,0.00,,---,0.00,VWS V14.01,2013-05-09 01:16:00,
2013-05-08 18:21:00,77.2,45.1,29.86,ENE,68,0.0,0.0,32,0.00,,---,0.00,VWS V14.01,2013-05-09 01:21:00,
2013-05-08 18:26:00,76.6,45.4,29.86,SE,126,5.4,5.4,33,0.00,,---,0.00,VWS V14.01,2013-05-09 01:26:00,
2013-05-08 18:31:00,76.1,44.9,29.86,SE,139,3.1,3.1,33,0.00,,---,0.00,VWS V14.01,2013-05-09 01:31:00,
2013-05-08 18:36:00,75.9,45.6,29.86,East,81,3.6,4.0,34,0.00,,---,0.00,VWS V14.01,2013-05-09 01:36:00,
2013-05-08 18:42:00,75.6,44.5,29.86,SE,143,3.6,8.1,33,0.00,,---,0.00,VWS V14.01,2013-05-09 01:42:00,
2013-05-08 18:47:00,75.6,45.2,29.86,ESE,107,3.6,8.1,34,0.00,,---,0.00,VWS V14.01,2013-05-09 01:47:00,
2013-05-08 18:52:00,75.0,45.5,29.86,SSE,151,0.0,4.0,35,0.00,,---,0.00,VWS V14.01,2013-05-09 01:52:00,
2013-05-08 18:57:00,74.7,45.2,29.86,East,88,0.0,4.9,35,0.00,,---,0.00,VWS V14.01,2013-05-09 01:57:00,
2013-05-08 19:02:00,74.3,44.9,29.86,ESE,105,0.0,4.5,35,0.00,,---,0.00,VWS V14.01,2013-05-09 02:02:00,
2013-05-08 19:07:00,73.9,45.3,29.86,SE,124,2.7,4.5,36,0.00,,---,0.00,VWS V14.01,2013-05-09 02:07:00,
2013-05-08 19:12:00,73.6,45.7,29.86,East,89,2.2,3.6,37,0.00,,---,0.00,VWS V14.01,2013-05-09 02:12:00,
2013-05-08 19:17:00,73.2,45.4,29.86,ESE,120,0.0,3.6,37,0.00,,---,0.00,VWS V14.01,2013-05-09 02:17:00,
2013-05-08 19:23:00,72.9,46.5,29.89,NE,40,4.0,4.9,39,0.00,,---,0.00,VWS V14.01,2013-05-09 02:23:00,
2013-05-08 19:29:00,72.5,46.2,29.89,SSE,147,0.0,5.4,39,0.00,,---,0.00,VWS V14.01,2013-05-09 02:29:00,
2013-05-08 19:34:00,72.1,45.8,29.89,SSE,168,0.0,0.0,39,0.00,,---,0.00,VWS V14.01,2013-05-09 02:34:00,
2013-05-08 19:39:00,71.8,46.8,29.89,NE,36,2.7,4.0,41,0.00,,---,0.00,VWS V14.01,2013-05-09 02:39:00,
2013-05-08 19:44:00,71.4,47.2,29.89,SSE,151,0.0,5.4,42,0.00,,---,0.00,VWS V14.01,2013-05-09 02:44:00,
2013-05-08 19:49:00,71.2,47.6,29.89,NNW,342,0.0,5.4,43,0.00,,---,0.00,VWS V14.01,2013-05-09 02:49:00,
2013-05-08 19:54:00,70.5,47.6,29.89,ESE,123,3.6,4.9,44,0.00,,---,0.00,VWS V14.01,2013-05-09 02:54:00,
2013-05-08 19:59:00,70.3,46.8,29.89,South,183,0.0,7.6,43,0.00,,---,0.00,VWS V14.01,2013-05-09 02:59:00,
2013-05-08 20:04:00,70.0,47.7,29.89,NNE,17,0.0,5.8,45,0.00,,---,0.00,VWS V14.01,2013-05-09 03:04:00,
2013-05-08 20:09:00,69.8,46.9,29.89,NNW,341,0.0,5.8,44,0.00,,---,0.00,VWS V14.01,2013-05-09 03:09:00,
2013-05-08 20:15:00,69.3,47.6,29.89,East,86,0.0,6.3,46,0.00,,---,0.00,VWS V14.01,2013-05-09 03:15:00,
2013-05-08 20:20:00,68.9,47.3,29.89,NNW,337,0.0,6.3,46,0.00,,---,0.00,VWS V14.01,2013-05-09 03:20:00,
2013-05-08 20:25:00,68.2,47.2,29.89,NE,36,0.0,4.0,47,0.00,,---,0.00,VWS V14.01,2013-05-09 03:25:00,
2013-05-08 20:30:00,67.6,47.8,29.89,East,89,0.0,4.0,49,0.00,,---,0.00,VWS V14.01,2013-05-09 03:30:00,
2013-05-08 20:35:00,67.3,47.5,29.89,East,83,0.0,4.9,49,0.00,,---,0.00,VWS V14.01,2013-05-09 03:35:00,
2013-05-08 20:40:00,66.9,47.7,29.89,ENE,77,0.0,0.0,50,0.00,,---,0.00,VWS V14.01,2013-05-09 03:40:00,
2013-05-08 20:45:00,66.6,47.9,29.89,ENE,72,0.0,0.0,51,0.00,,---,0.00,VWS V14.01,2013-05-09 03:45:00,
2013-05-08 20:50:00,66.0,47.9,29.92,East,97,3.6,4.0,52,0.00,,---,0.00,VWS V14.01,2013-05-09 03:50:00,
2013-05-08 20:55:00,65.8,47.7,29.92,North,0,0.0,4.0,52,0.00,,---,0.00,VWS V14.01,2013-05-09 03:55:00,
2013-05-08 21:00:00,65.8,47.7,29.92,ESE,118,0.0,0.0,52,0.00,,---,0.00,VWS V14.01,2013-05-09 04:00:00,
2013-05-08 21:01:00,65.8,47.7,29.92,SE,141,0.0,0.0,52,0.00,,---,0.00,VWS V14.01,2013-05-09 04:01:00,
2013-05-08 21:06:00,65.3,48.2,29.92,ENE,71,0.0,3.1,54,0.00,,---,0.00,VWS V14.01,2013-05-09 04:06:00,
2013-05-08 21:11:00,64.9,48.4,29.92,ENE,66,0.0,2.2,55,0.00,,---,0.00,VWS V14.01,2013-05-09 04:11:00,
2013-05-08 21:17:00,64.4,47.4,29.92,East,93,0.0,4.0,54,0.00,,---,0.00,VWS V14.01,2013-05-09 04:17:00,
2013-05-08 21:22:00,64.4,47.9,29.92,ENE,62,0.0,3.6,55,0.00,,---,0.00,VWS V14.01,2013-05-09 04:22:00,
2013-05-08 21:27:00,64.0,48.0,29.92,NNE,15,0.0,5.4,56,0.00,,---,0.00,VWS V14.01,2013-05-09 04:27:00,
2013-05-08 21:32:00,63.9,47.9,29.92,ENE,75,0.0,0.0,56,0.00,,---,0.00,VWS V14.01,2013-05-09 04:32:00,
2013-05-08 21:37:00,63.7,47.7,29.92,ESE,113,0.0,0.0,56,0.00,,---,0.00,VWS V14.01,2013-05-09 04:37:00,
2013-05-08 21:42:00,63.5,47.5,29.92,ENE,67,0.0,3.6,56,0.00,,---,0.00,VWS V14.01,2013-05-09 04:42:00,
2013-05-08 21:47:00,63.1,47.7,29.92,East,90,0.0,3.6,57,0.00,,---,0.00,VWS V14.01,2013-05-09 04:47:00,
2013-05-08 21:52:00,63.0,47.5,29.92,ESE,119,4.0,4.0,57,0.00,,---,0.00,VWS V14.01,2013-05-09 04:52:00,
2013-05-08 21:57:00,62.8,47.8,29.92,NE,35,0.0,4.9,58,0.00,,---,0.00,VWS V14.01,2013-05-09 04:57:00,
2013-05-08 22:02:00,62.4,47.9,29.92,East,86,0.0,0.0,59,0.00,,---,0.00,VWS V14.01,2013-05-09 05:02:00,
2013-05-08 22:07:00,62.1,47.6,29.92,NNE,16,0.0,3.6,59,0.00,,---,0.00,VWS V14.01,2013-05-09 05:07:00,
2013-05-08 22:13:00,61.9,47.4,29.92,East,84,0.0,4.9,59,0.00,,---,0.00,VWS V14.01,2013-05-09 05:13:00,
2013-05-08 22:18:00,61.9,47.9,29.92,East,85,0.0,4.9,60,0.00,,---,0.00,VWS V14.01,2013-05-09 05:18:00,
2013-05-08 22:23:00,61.5,47.5,29.92,ENE,71,0.0,0.0,60,0.00,,---,0.00,VWS V14.01,2013-05-09 05:23:00,
2013-05-08 22:28:00,61.5,47.1,29.92,East,97,3.1,6.7,59,0.00,,---,0.00,VWS V14.01,2013-05-09 05:28:00,
2013-05-08 22:33:00,61.7,47.2,29.92,SE,133,0.0,0.0,59,0.00,,---,0.00,VWS V14.01,2013-05-09 05:33:00,
2013-05-08 22:38:00,61.5,47.1,29.92,East,79,0.0,5.4,59,0.00,,---,0.00,VWS V14.01,2013-05-09 05:38:00,
2013-05-08 22:43:00,61.5,47.5,29.92,ENE,63,0.0,0.0,60,0.00,,---,0.00,VWS V14.01,2013-05-09 05:43:00,
2013-05-08 22:48:00,61.3,47.3,29.92,ENE,77,0.0,0.0,60,0.00,,---,0.00,VWS V14.01,2013-05-09 05:48:00,
2013-05-08 22:53:00,61.0,47.0,29.95,ENE,73,0.0,3.6,60,0.00,,---,0.00,VWS V14.01,2013-05-09 05:53:00,
2013-05-08 22:58:00,60.8,46.8,29.95,ENE,78,0.0,3.6,60,0.00,,---,0.00,VWS V14.01,2013-05-09 05:58:00,
2013-05-08 23:03:00,60.6,46.7,29.95,East,90,2.7,4.9,60,0.00,,---,0.00,VWS V14.01,2013-05-09 06:03:00,
2013-05-08 23:08:00,61.0,47.0,29.95,East,87,0.0,4.9,60,0.00,,---,0.00,VWS V14.01,2013-05-09 06:08:00,
2013-05-08 23:13:00,60.8,46.8,29.95,East,87,0.0,3.1,60,0.00,,---,0.00,VWS V14.01,2013-05-09 06:13:00,
2013-05-08 23:18:00,60.6,47.1,29.95,ESE,116,0.0,4.9,61,0.00,,---,0.00,VWS V14.01,2013-05-09 06:18:00,
2013-05-08 23:24:00,60.4,46.9,29.95,East,93,0.0,4.0,61,0.00,,---,0.00,VWS V14.01,2013-05-09 06:24:00,
2013-05-08 23:29:00,60.3,46.8,29.95,ESE,117,0.0,4.0,61,0.00,,---,0.00,VWS V14.01,2013-05-09 06:29:00,
2013-05-08 23:34:00,60.1,46.6,29.95,East,89,0.0,0.0,61,0.00,,---,0.00,VWS V14.01,2013-05-09 06:34:00,
2013-05-08 23:39:00,59.7,46.7,29.95,NNE,23,0.0,0.0,62,0.00,,---,0.00,VWS V14.01,2013-05-09 06:39:00,
2013-05-08 23:44:00,59.4,46.3,29.95,NNE,28,0.0,0.0,62,0.00,,---,0.00,VWS V14.01,2013-05-09 06:44:00,
2013-05-08 23:49:00,59.2,46.6,29.95,East,89,0.0,0.0,63,0.00,,---,0.00,VWS V14.01,2013-05-09 06:49:00,
2013-05-08 23:54:00,58.8,46.7,29.95,East,80,0.0,3.1,64,0.00,,---,0.00,VWS V14.01,2013-05-09 06:54:00,
2013-05-08 23:59:00,58.5,46.3,29.95,East,82,0.0,3.1,64,0.00,,---,0.00,VWS V14.01,2013-05-09 06:59:00,